sensor_id;sensor_type;location;lat;lon;timestamp;P1;durP1;ratioP1;P2;durP2;ratioP2
9761;SDS011;4920;49.594;11.022;2024-03-23T00:54:03;14.27;;;10.53;;
9761;SDS011;4920;49.594;11.022;2024-03-23T00:56:33;14.17;;;10.60;;
9761;SDS011;4920;49.594;11.022;2024-03-23T00:59:00;15.90;;;10.83;;
9761;SDS011;4920;49.594;11.022;2024-03-23T01:01:28;17.97;;;11.00;;
9761;SDS011;4920;49.594;11.022;2024-03-23T01:03:55;13.40;;;10.30;;
9761;SDS011;4920;49.594;11.022;2024-03-23T01:06:23;13.83;;;9.80;;
9761;SDS011;4920;49.594;11.022;2024-03-23T01:08:50;13.40;;;9.70;;
9761;SDS011;4920;49.594;11.022;2024-03-23T01:11:19;12.47;;;9.47;;
9761;SDS011;4920;49.594;11.022;2024-03-23T01:13:47;12.40;;;10.30;;
9761;SDS011;4920;49.594;11.022;2024-03-23T01:16:15;14.23;;;9.83;;
9761;SDS011;4920;49.594;11.022;2024-03-23T01:18:42;14.13;;;10.40;;
9761;SDS011;4920;49.594;11.022;2024-03-23T01:21:10;13.57;;;9.67;;
9761;SDS011;4920;49.594;11.022;2024-03-23T01:23:37;15.23;;;10.30;;
9761;SDS011;4920;49.594;11.022;2024-03-23T01:26:06;13.60;;;10.00;;
9761;SDS011;4920;49.594;11.022;2024-03-23T01:28:32;15.37;;;10.73;;
9761;SDS011;4920;49.594;11.022;2024-03-23T01:31:02;13.53;;;9.73;;
9761;SDS011;4920;49.594;11.022;2024-03-23T01:33:29;15.67;;;9.77;;
9761;SDS011;4920;49.594;11.022;2024-03-23T01:35:58;11.37;;;9.77;;
9761;SDS011;4920;49.594;11.022;2024-03-23T01:38:25;12.40;;;10.10;;
9761;SDS011;4920;49.594;11.022;2024-03-23T01:40:56;13.47;;;10.10;;
9761;SDS011;4920;49.594;11.022;2024-03-23T01:43:23;12.70;;;9.57;;
9761;SDS011;4920;49.594;11.022;2024-03-23T01:45:51;12.90;;;10.23;;
9761;SDS011;4920;49.594;11.022;2024-03-23T01:48:20;12.97;;;9.40;;
9761;SDS011;4920;49.594;11.022;2024-03-23T01:50:49;13.60;;;10.67;;
9761;SDS011;4920;49.594;11.022;2024-03-23T01:53:15;12.80;;;9.63;;
9761;SDS011;4920;49.594;11.022;2024-03-23T01:55:47;11.63;;;10.00;;
9761;SDS011;4920;49.594;11.022;2024-03-23T01:58:14;13.47;;;10.17;;
9761;SDS011;4920;49.594;11.022;2024-03-23T02:00:42;12.63;;;9.47;;
9761;SDS011;4920;49.594;11.022;2024-03-23T02:03:23;14.13;;;9.77;;
9761;SDS011;4920;49.594;11.022;2024-03-23T02:05:52;13.73;;;9.63;;
9761;SDS011;4920;49.594;11.022;2024-03-23T02:08:20;13.03;;;9.60;;
9761;SDS011;4920;49.594;11.022;2024-03-23T02:10:49;11.77;;;9.70;;
9761;SDS011;4920;49.594;11.022;2024-03-23T02:13:17;11.93;;;8.80;;
9761;SDS011;4920;49.594;11.022;2024-03-23T02:15:45;14.13;;;10.37;;
9761;SDS011;4920;49.594;11.022;2024-03-23T02:18:12;11.97;;;9.20;;
9761;SDS011;4920;49.594;11.022;2024-03-23T02:20:42;11.97;;;9.30;;
9761;SDS011;4920;49.594;11.022;2024-03-23T02:23:14;13.30;;;9.80;;
9761;SDS011;4920;49.594;11.022;2024-03-23T02:25:43;12.77;;;9.87;;
9761;SDS011;4920;49.594;11.022;2024-03-23T02:28:11;12.97;;;10.30;;
9761;SDS011;4920;49.594;11.022;2024-03-23T02:30:39;14.70;;;10.07;;
9761;SDS011;4920;49.594;11.022;2024-03-23T02:33:06;12.27;;;9.60;;
9761;SDS011;4920;49.594;11.022;2024-03-23T02:35:34;13.70;;;9.63;;
9761;SDS011;4920;49.594;11.022;2024-03-23T02:38:02;12.37;;;10.00;;
9761;SDS011;4920;49.594;11.022;2024-03-23T02:40:31;13.57;;;9.93;;
9761;SDS011;4920;49.594;11.022;2024-03-23T02:42:58;13.30;;;9.70;;
9761;SDS011;4920;49.594;11.022;2024-03-23T02:45:26;10.97;;;8.90;;
9761;SDS011;4920;49.594;11.022;2024-03-23T02:47:53;13.27;;;8.57;;
9761;SDS011;4920;49.594;11.022;2024-03-23T02:50:22;12.87;;;8.90;;
9761;SDS011;4920;49.594;11.022;2024-03-23T02:52:49;12.10;;;9.03;;
9761;SDS011;4920;49.594;11.022;2024-03-23T02:55:17;11.53;;;9.10;;
9761;SDS011;4920;49.594;11.022;2024-03-23T02:57:46;11.87;;;9.30;;
9761;SDS011;4920;49.594;11.022;2024-03-23T03:00:14;10.83;;;8.90;;
9761;SDS011;4920;49.594;11.022;2024-03-23T03:02:41;10.47;;;8.73;;
9761;SDS011;4920;49.594;11.022;2024-03-23T03:05:09;11.77;;;9.40;;
9761;SDS011;4920;49.594;11.022;2024-03-23T03:07:36;11.67;;;9.10;;
9761;SDS011;4920;49.594;11.022;2024-03-23T03:10:06;11.27;;;9.30;;
9761;SDS011;4920;49.594;11.022;2024-03-23T03:12:36;10.50;;;8.60;;
9761;SDS011;4920;49.594;11.022;2024-03-23T03:15:07;13.23;;;8.77;;
9761;SDS011;4920;49.594;11.022;2024-03-23T03:17:35;13.20;;;8.40;;
9761;SDS011;4920;49.594;11.022;2024-03-23T03:20:03;10.00;;;8.30;;
9761;SDS011;4920;49.594;11.022;2024-03-23T03:22:32;11.93;;;8.73;;
9761;SDS011;4920;49.594;11.022;2024-03-23T03:25:00;10.37;;;8.47;;
9761;SDS011;4920;49.594;11.022;2024-03-23T03:27:29;10.00;;;8.63;;
9761;SDS011;4920;49.594;11.022;2024-03-23T03:29:57;11.27;;;8.93;;
9761;SDS011;4920;49.594;11.022;2024-03-23T03:32:25;13.77;;;8.63;;
9761;SDS011;4920;49.594;11.022;2024-03-23T03:34:53;12.07;;;8.77;;
9761;SDS011;4920;49.594;11.022;2024-03-23T03:37:20;10.90;;;8.23;;
9761;SDS011;4920;49.594;11.022;2024-03-23T03:39:48;12.40;;;9.13;;
9761;SDS011;4920;49.594;11.022;2024-03-23T03:42:15;13.40;;;9.30;;
9761;SDS011;4920;49.594;11.022;2024-03-23T03:44:43;11.57;;;8.77;;
9761;SDS011;4920;49.594;11.022;2024-03-23T03:47:10;11.67;;;8.73;;
9761;SDS011;4920;49.594;11.022;2024-03-23T03:49:40;9.77;;;8.23;;
9761;SDS011;4920;49.594;11.022;2024-03-23T03:52:07;12.30;;;8.93;;
9761;SDS011;4920;49.594;11.022;2024-03-23T03:54:35;13.17;;;9.27;;
9761;SDS011;4920;49.594;11.022;2024-03-23T03:57:02;9.63;;;8.57;;
9761;SDS011;4920;49.594;11.022;2024-03-23T03:59:31;11.90;;;8.70;;
9761;SDS011;4920;49.594;11.022;2024-03-23T04:01:57;11.47;;;9.20;;
9761;SDS011;4920;49.594;11.022;2024-03-23T04:04:26;12.53;;;8.97;;
9761;SDS011;4920;49.594;11.022;2024-03-23T04:06:59;10.23;;;8.80;;
9761;SDS011;4920;49.594;11.022;2024-03-23T04:09:27;10.80;;;8.60;;
9761;SDS011;4920;49.594;11.022;2024-03-23T04:11:54;10.63;;;8.93;;
9761;SDS011;4920;49.594;11.022;2024-03-23T04:14:22;10.93;;;9.53;;
9761;SDS011;4920;49.594;11.022;2024-03-23T04:16:49;11.70;;;8.60;;
9761;SDS011;4920;49.594;11.022;2024-03-23T04:19:17;10.60;;;8.90;;
9761;SDS011;4920;49.594;11.022;2024-03-23T04:21:45;11.80;;;9.17;;
9761;SDS011;4920;49.594;11.022;2024-03-23T04:24:15;12.27;;;9.30;;
9761;SDS011;4920;49.594;11.022;2024-03-23T04:26:45;11.63;;;9.00;;
9761;SDS011;4920;49.594;11.022;2024-03-23T04:29:13;11.37;;;8.50;;
9761;SDS011;4920;49.594;11.022;2024-03-23T04:31:40;10.63;;;8.57;;
9761;SDS011;4920;49.594;11.022;2024-03-23T04:34:08;12.73;;;8.60;;
9761;SDS011;4920;49.594;11.022;2024-03-23T04:36:35;14.10;;;9.20;;
9761;SDS011;4920;49.594;11.022;2024-03-23T04:39:04;11.53;;;8.37;;
9761;SDS011;4920;49.594;11.022;2024-03-23T04:41:36;12.07;;;8.90;;
9761;SDS011;4920;49.594;11.022;2024-03-23T04:44:04;12.13;;;8.97;;
9761;SDS011;4920;49.594;11.022;2024-03-23T04:46:33;12.40;;;9.33;;
9761;SDS011;4920;49.594;11.022;2024-03-23T04:49:01;12.73;;;9.80;;
9761;SDS011;4920;49.594;11.022;2024-03-23T04:51:35;15.27;;;9.80;;
9761;SDS011;4920;49.594;11.022;2024-03-23T04:54:04;15.13;;;9.97;;
9761;SDS011;4920;49.594;11.022;2024-03-23T04:56:32;11.50;;;9.60;;
9761;SDS011;4920;49.594;11.022;2024-03-23T04:59:01;12.83;;;10.03;;
9761;SDS011;4920;49.594;11.022;2024-03-23T05:01:30;14.47;;;10.50;;
9761;SDS011;4920;49.594;11.022;2024-03-23T05:04:02;12.90;;;10.07;;
9761;SDS011;4920;49.594;11.022;2024-03-23T05:06:31;13.10;;;10.03;;
9761;SDS011;4920;49.594;11.022;2024-03-23T05:08:58;12.03;;;9.70;;
9761;SDS011;4920;49.594;11.022;2024-03-23T05:11:27;13.83;;;10.40;;
9761;SDS011;4920;49.594;11.022;2024-03-23T05:13:54;13.83;;;9.43;;
9761;SDS011;4920;49.594;11.022;2024-03-23T05:16:24;11.50;;;9.77;;
9761;SDS011;4920;49.594;11.022;2024-03-23T05:18:52;14.67;;;9.87;;
9761;SDS011;4920;49.594;11.022;2024-03-23T05:21:20;12.33;;;9.97;;
9761;SDS011;4920;49.594;11.022;2024-03-23T05:23:47;11.83;;;9.50;;
9761;SDS011;4920;49.594;11.022;2024-03-23T05:26:15;13.00;;;9.33;;
9761;SDS011;4920;49.594;11.022;2024-03-23T05:28:43;12.07;;;9.40;;
9761;SDS011;4920;49.594;11.022;2024-03-23T05:31:11;14.23;;;9.63;;
9761;SDS011;4920;49.594;11.022;2024-03-23T05:33:39;11.23;;;9.03;;
9761;SDS011;4920;49.594;11.022;2024-03-23T05:36:08;12.73;;;8.97;;
9761;SDS011;4920;49.594;11.022;2024-03-23T05:38:37;11.97;;;9.00;;
9761;SDS011;4920;49.594;11.022;2024-03-23T05:41:05;11.77;;;8.93;;
9761;SDS011;4920;49.594;11.022;2024-03-23T05:43:32;12.40;;;8.67;;
9761;SDS011;4920;49.594;11.022;2024-03-23T05:46:00;11.70;;;8.60;;
9761;SDS011;4920;49.594;11.022;2024-03-23T05:48:28;12.77;;;9.03;;
9761;SDS011;4920;49.594;11.022;2024-03-23T05:50:58;10.27;;;8.70;;
9761;SDS011;4920;49.594;11.022;2024-03-23T05:53:25;10.93;;;8.60;;
9761;SDS011;4920;49.594;11.022;2024-03-23T05:55:59;10.13;;;7.87;;
9761;SDS011;4920;49.594;11.022;2024-03-23T05:58:29;9.10;;;7.83;;
9761;SDS011;4920;49.594;11.022;2024-03-23T06:00:58;9.73;;;7.97;;
9761;SDS011;4920;49.594;11.022;2024-03-23T06:03:26;11.40;;;7.90;;
9761;SDS011;4920;49.594;11.022;2024-03-23T06:05:54;9.50;;;7.60;;
9761;SDS011;4920;49.594;11.022;2024-03-23T06:08:23;11.93;;;8.13;;
9761;SDS011;4920;49.594;11.022;2024-03-23T06:10:51;9.07;;;7.40;;
9761;SDS011;4920;49.594;11.022;2024-03-23T06:13:18;8.80;;;7.50;;
9761;SDS011;4920;49.594;11.022;2024-03-23T06:15:51;10.47;;;7.20;;
9761;SDS011;4920;49.594;11.022;2024-03-23T06:18:17;9.07;;;7.20;;
9761;SDS011;4920;49.594;11.022;2024-03-23T06:20:46;8.43;;;7.00;;
9761;SDS011;4920;49.594;11.022;2024-03-23T06:23:13;11.90;;;6.50;;
9761;SDS011;4920;49.594;11.022;2024-03-23T06:25:44;8.80;;;7.10;;
9761;SDS011;4920;49.594;11.022;2024-03-23T06:28:11;9.47;;;7.17;;
9761;SDS011;4920;49.594;11.022;2024-03-23T06:30:40;7.63;;;6.83;;
9761;SDS011;4920;49.594;11.022;2024-03-23T06:33:06;8.80;;;6.87;;
9761;SDS011;4920;49.594;11.022;2024-03-23T06:35:35;8.57;;;6.80;;
9761;SDS011;4920;49.594;11.022;2024-03-23T06:38:02;8.93;;;7.00;;
9761;SDS011;4920;49.594;11.022;2024-03-23T06:40:30;10.17;;;7.13;;
9761;SDS011;4920;49.594;11.022;2024-03-23T06:42:59;11.03;;;7.50;;
9761;SDS011;4920;49.594;11.022;2024-03-23T06:45:27;9.30;;;8.03;;
9761;SDS011;4920;49.594;11.022;2024-03-23T06:47:54;11.87;;;8.63;;
9761;SDS011;4920;49.594;11.022;2024-03-23T06:50:24;12.50;;;8.43;;
9761;SDS011;4920;49.594;11.022;2024-03-23T06:52:51;12.63;;;9.00;;
9761;SDS011;4920;49.594;11.022;2024-03-23T06:55:19;12.93;;;8.93;;
9761;SDS011;4920;49.594;11.022;2024-03-23T06:57:46;9.43;;;7.63;;
9761;SDS011;4920;49.594;11.022;2024-03-23T07:00:16;10.67;;;7.80;;
9761;SDS011;4920;49.594;11.022;2024-03-23T07:02:43;11.10;;;8.20;;
9761;SDS011;4920;49.594;11.022;2024-03-23T07:05:11;9.93;;;7.93;;
9761;SDS011;4920;49.594;11.022;2024-03-23T07:07:38;11.87;;;8.50;;
9761;SDS011;4920;49.594;11.022;2024-03-23T07:10:07;10.00;;;7.47;;
9761;SDS011;4920;49.594;11.022;2024-03-23T07:12:34;9.93;;;7.60;;
9761;SDS011;4920;49.594;11.022;2024-03-23T07:15:02;8.17;;;7.10;;
9761;SDS011;4920;49.594;11.022;2024-03-23T07:17:31;9.73;;;6.90;;
9761;SDS011;4920;49.594;11.022;2024-03-23T07:20:01;8.83;;;7.07;;
9761;SDS011;4920;49.594;11.022;2024-03-23T07:22:29;8.77;;;6.73;;
9761;SDS011;4920;49.594;11.022;2024-03-23T07:24:59;10.93;;;7.33;;
9761;SDS011;4920;49.594;11.022;2024-03-23T07:27:26;11.37;;;7.20;;
9761;SDS011;4920;49.594;11.022;2024-03-23T07:29:54;8.77;;;7.00;;
9761;SDS011;4920;49.594;11.022;2024-03-23T07:32:21;9.43;;;6.90;;
9761;SDS011;4920;49.594;11.022;2024-03-23T07:34:51;11.03;;;7.60;;
9761;SDS011;4920;49.594;11.022;2024-03-23T07:37:18;9.73;;;7.33;;
9761;SDS011;4920;49.594;11.022;2024-03-23T07:39:46;11.77;;;7.97;;
9761;SDS011;4920;49.594;11.022;2024-03-23T07:42:13;10.03;;;7.63;;
9761;SDS011;4920;49.594;11.022;2024-03-23T07:44:41;11.23;;;8.20;;
9761;SDS011;4920;49.594;11.022;2024-03-23T07:47:08;12.57;;;8.37;;
9761;SDS011;4920;49.594;11.022;2024-03-23T07:49:37;12.23;;;9.00;;
9761;SDS011;4920;49.594;11.022;2024-03-23T07:52:07;11.10;;;7.90;;
9761;SDS011;4920;49.594;11.022;2024-03-23T07:54:35;10.13;;;7.37;;
9761;SDS011;4920;49.594;11.022;2024-03-23T07:57:02;9.30;;;6.77;;
9761;SDS011;4920;49.594;11.022;2024-03-23T07:59:32;9.30;;;7.07;;
9761;SDS011;4920;49.594;11.022;2024-03-23T08:01:59;8.73;;;6.70;;
9761;SDS011;4920;49.594;11.022;2024-03-23T08:04:28;9.10;;;6.80;;
9761;SDS011;4920;49.594;11.022;2024-03-23T08:06:55;9.53;;;6.70;;
9761;SDS011;4920;49.594;11.022;2024-03-23T08:09:24;8.43;;;6.00;;
9761;SDS011;4920;49.594;11.022;2024-03-23T08:11:51;8.50;;;6.50;;
9761;SDS011;4920;49.594;11.022;2024-03-23T08:14:20;9.30;;;6.13;;
9761;SDS011;4920;49.594;11.022;2024-03-23T08:16:47;7.70;;;5.37;;
9761;SDS011;4920;49.594;11.022;2024-03-23T08:19:17;6.10;;;4.30;;
9761;SDS011;4920;49.594;11.022;2024-03-23T08:21:44;5.93;;;3.90;;
9761;SDS011;4920;49.594;11.022;2024-03-23T08:24:12;5.97;;;3.70;;
9761;SDS011;4920;49.594;11.022;2024-03-23T08:26:41;5.40;;;3.47;;
9761;SDS011;4920;49.594;11.022;2024-03-23T08:29:09;3.87;;;2.90;;
9761;SDS011;4920;49.594;11.022;2024-03-23T08:31:37;3.20;;;2.73;;
9761;SDS011;4920;49.594;11.022;2024-03-23T08:34:05;3.57;;;2.70;;
9761;SDS011;4920;49.594;11.022;2024-03-23T08:36:32;3.23;;;2.80;;
9761;SDS011;4920;49.594;11.022;2024-03-23T08:39:00;2.77;;;2.53;;
9761;SDS011;4920;49.594;11.022;2024-03-23T08:41:27;3.90;;;2.30;;
9761;SDS011;4920;49.594;11.022;2024-03-23T08:43:57;3.00;;;2.27;;
9761;SDS011;4920;49.594;11.022;2024-03-23T08:46:24;2.97;;;2.23;;
9761;SDS011;4920;49.594;11.022;2024-03-23T08:48:52;2.83;;;2.23;;
9761;SDS011;4920;49.594;11.022;2024-03-23T08:51:20;3.93;;;2.43;;
9761;SDS011;4920;49.594;11.022;2024-03-23T08:53:47;2.53;;;2.30;;
9761;SDS011;4920;49.594;11.022;2024-03-23T08:56:15;3.30;;;2.10;;
9761;SDS011;4920;49.594;11.022;2024-03-23T08:58:43;2.97;;;1.67;;
9761;SDS011;4920;49.594;11.022;2024-03-23T09:01:12;2.10;;;1.23;;
9761;SDS011;4920;49.594;11.022;2024-03-23T09:03:40;2.00;;;1.40;;
9761;SDS011;4920;49.594;11.022;2024-03-23T09:06:08;1.30;;;1.20;;
9761;SDS011;4920;49.594;11.022;2024-03-23T09:08:36;3.47;;;1.17;;
9761;SDS011;4920;49.594;11.022;2024-03-23T09:11:05;2.07;;;1.07;;
9761;SDS011;4920;49.594;11.022;2024-03-23T09:13:32;1.07;;;0.90;;
9761;SDS011;4920;49.594;11.022;2024-03-23T09:16:00;1.70;;;1.03;;
9761;SDS011;4920;49.594;11.022;2024-03-23T09:18:31;1.23;;;0.93;;
9761;SDS011;4920;49.594;11.022;2024-03-23T09:21:01;1.63;;;0.90;;
9761;SDS011;4920;49.594;11.022;2024-03-23T09:23:28;1.27;;;1.00;;
9761;SDS011;4920;49.594;11.022;2024-03-23T09:25:56;2.83;;;0.90;;
9761;SDS011;4920;49.594;11.022;2024-03-23T09:28:24;1.00;;;0.67;;
9761;SDS011;4920;49.594;11.022;2024-03-23T09:30:53;0.90;;;0.80;;
9761;SDS011;4920;49.594;11.022;2024-03-23T09:33:20;0.90;;;0.77;;
9761;SDS011;4920;49.594;11.022;2024-03-23T09:35:49;1.23;;;0.57;;
9761;SDS011;4920;49.594;11.022;2024-03-23T09:38:16;0.50;;;0.50;;
9761;SDS011;4920;49.594;11.022;2024-03-23T09:40:45;0.63;;;0.60;;
9761;SDS011;4920;49.594;11.022;2024-03-23T09:43:14;1.07;;;0.60;;
9761;SDS011;4920;49.594;11.022;2024-03-23T09:45:42;2.00;;;0.60;;
9761;SDS011;4920;49.594;11.022;2024-03-23T09:48:11;0.83;;;0.50;;
9761;SDS011;4920;49.594;11.022;2024-03-23T09:50:40;1.20;;;0.60;;
9761;SDS011;4920;49.594;11.022;2024-03-23T09:53:10;0.60;;;0.60;;
9761;SDS011;4920;49.594;11.022;2024-03-23T09:55:39;0.70;;;0.63;;
9761;SDS011;4920;49.594;11.022;2024-03-23T09:58:07;1.33;;;0.70;;
9761;SDS011;4920;49.594;11.022;2024-03-23T10:00:39;1.97;;;0.80;;
9761;SDS011;4920;49.594;11.022;2024-03-23T10:03:06;1.20;;;0.80;;
9761;SDS011;4920;49.594;11.022;2024-03-23T10:05:37;0.70;;;0.70;;
9761;SDS011;4920;49.594;11.022;2024-03-23T10:08:17;1.10;;;0.70;;
9761;SDS011;4920;49.594;11.022;2024-03-23T10:10:46;1.10;;;0.80;;
9761;SDS011;4920;49.594;11.022;2024-03-23T10:13:23;1.77;;;0.97;;
9761;SDS011;4920;49.594;11.022;2024-03-23T10:15:55;1.03;;;0.93;;
9761;SDS011;4920;49.594;11.022;2024-03-23T10:18:24;3.23;;;1.30;;
9761;SDS011;4920;49.594;11.022;2024-03-23T10:21:06;2.47;;;1.20;;
9761;SDS011;4920;49.594;11.022;2024-03-23T10:23:36;2.10;;;1.40;;
9761;SDS011;4920;49.594;11.022;2024-03-23T10:26:12;3.10;;;1.30;;
9761;SDS011;4920;49.594;11.022;2024-03-23T10:28:50;2.83;;;1.70;;
9761;SDS011;4920;49.594;11.022;2024-03-23T10:31:19;1.97;;;1.50;;
9761;SDS011;4920;49.594;11.022;2024-03-23T10:33:46;3.60;;;1.63;;
9761;SDS011;4920;49.594;11.022;2024-03-23T10:36:15;3.07;;;1.73;;
9761;SDS011;4920;49.594;11.022;2024-03-23T10:38:45;1.50;;;1.30;;
9761;SDS011;4920;49.594;11.022;2024-03-23T10:41:13;3.37;;;1.53;;
9761;SDS011;4920;49.594;11.022;2024-03-23T10:43:41;3.03;;;1.50;;
9761;SDS011;4920;49.594;11.022;2024-03-23T10:46:12;2.57;;;1.50;;
9761;SDS011;4920;49.594;11.022;2024-03-23T10:48:39;3.00;;;1.70;;
9761;SDS011;4920;49.594;11.022;2024-03-23T10:51:09;4.20;;;1.77;;
9761;SDS011;4920;49.594;11.022;2024-03-23T10:53:37;2.60;;;1.50;;
9761;SDS011;4920;49.594;11.022;2024-03-23T10:56:07;2.93;;;1.67;;
9761;SDS011;4920;49.594;11.022;2024-03-23T10:58:36;3.33;;;1.80;;
9761;SDS011;4920;49.594;11.022;2024-03-23T11:01:06;6.33;;;2.00;;
9761;SDS011;4920;49.594;11.022;2024-03-23T11:03:34;3.47;;;1.63;;
9761;SDS011;4920;49.594;11.022;2024-03-23T11:06:03;2.53;;;1.57;;
9761;SDS011;4920;49.594;11.022;2024-03-23T11:08:34;2.87;;;1.87;;
9761;SDS011;4920;49.594;11.022;2024-03-23T11:11:21;3.33;;;1.80;;
9761;SDS011;4920;49.594;11.022;2024-03-23T11:13:49;3.50;;;1.80;;
9761;SDS011;4920;49.594;11.022;2024-03-23T11:16:21;3.87;;;1.80;;
9761;SDS011;4920;49.594;11.022;2024-03-23T11:18:49;3.73;;;2.03;;
9761;SDS011;4920;49.594;11.022;2024-03-23T11:24:20;3.03;;;1.97;;
9761;SDS011;4920;49.594;11.022;2024-03-23T11:26:50;4.63;;;2.20;;
9761;SDS011;4920;49.594;11.022;2024-03-23T11:29:17;4.57;;;2.00;;
9761;SDS011;4920;49.594;11.022;2024-03-23T11:31:46;3.63;;;2.30;;
9761;SDS011;4920;49.594;11.022;2024-03-23T11:34:14;4.77;;;2.30;;
9761;SDS011;4920;49.594;11.022;2024-03-23T11:36:43;4.70;;;2.60;;
9761;SDS011;4920;49.594;11.022;2024-03-23T11:39:13;2.77;;;2.20;;
9761;SDS011;4920;49.594;11.022;2024-03-23T11:41:46;4.40;;;2.40;;
9761;SDS011;4920;49.594;11.022;2024-03-23T11:44:16;6.00;;;2.70;;
9761;SDS011;4920;49.594;11.022;2024-03-23T11:46:44;6.47;;;2.60;;
9761;SDS011;4920;49.594;11.022;2024-03-23T11:49:21;3.30;;;2.40;;
9761;SDS011;4920;49.594;11.022;2024-03-23T11:51:50;3.70;;;2.27;;
9761;SDS011;4920;49.594;11.022;2024-03-23T11:54:22;4.07;;;2.37;;
9761;SDS011;4920;49.594;11.022;2024-03-23T11:56:54;6.53;;;2.60;;
9761;SDS011;4920;49.594;11.022;2024-03-23T11:59:34;4.07;;;2.47;;
9761;SDS011;4920;49.594;11.022;2024-03-23T12:02:06;6.87;;;2.47;;
9761;SDS011;4920;49.594;11.022;2024-03-23T12:04:33;4.87;;;2.43;;
9761;SDS011;4920;49.594;11.022;2024-03-23T12:07:09;4.23;;;2.27;;
9761;SDS011;4920;49.594;11.022;2024-03-23T12:09:37;5.07;;;2.30;;
9761;SDS011;4920;49.594;11.022;2024-03-23T12:12:07;6.37;;;2.50;;
9761;SDS011;4920;49.594;11.022;2024-03-23T12:14:36;6.30;;;2.40;;
9761;SDS011;4920;49.594;11.022;2024-03-23T12:17:12;3.70;;;2.40;;
9761;SDS011;4920;49.594;11.022;2024-03-23T12:19:40;6.53;;;2.30;;
9761;SDS011;4920;49.594;11.022;2024-03-23T12:22:11;5.20;;;2.43;;
9761;SDS011;4920;49.594;11.022;2024-03-23T12:24:38;3.97;;;2.60;;
9761;SDS011;4920;49.594;11.022;2024-03-23T12:27:11;5.80;;;2.30;;
9761;SDS011;4920;49.594;11.022;2024-03-23T12:29:40;4.77;;;2.20;;
9761;SDS011;4920;49.594;11.022;2024-03-23T12:32:09;3.70;;;2.20;;
9761;SDS011;4920;49.594;11.022;2024-03-23T12:34:36;5.50;;;2.13;;
9761;SDS011;4920;49.594;11.022;2024-03-23T12:37:04;4.60;;;2.43;;
9761;SDS011;4920;49.594;11.022;2024-03-23T12:39:32;6.90;;;2.27;;
9761;SDS011;4920;49.594;11.022;2024-03-23T12:42:01;4.90;;;2.40;;
9761;SDS011;4920;49.594;11.022;2024-03-23T12:44:28;4.17;;;2.30;;
9761;SDS011;4920;49.594;11.022;2024-03-23T12:46:58;6.30;;;2.60;;
9761;SDS011;4920;49.594;11.022;2024-03-23T12:49:25;6.73;;;2.20;;
9761;SDS011;4920;49.594;11.022;2024-03-23T12:51:55;10.53;;;2.77;;
9761;SDS011;4920;49.594;11.022;2024-03-23T12:54:22;5.67;;;2.53;;
9761;SDS011;4920;49.594;11.022;2024-03-23T12:56:51;4.80;;;2.30;;
9761;SDS011;4920;49.594;11.022;2024-03-23T12:59:18;6.23;;;2.50;;
9761;SDS011;4920;49.594;11.022;2024-03-23T13:01:46;5.47;;;2.30;;
9761;SDS011;4920;49.594;11.022;2024-03-23T13:04:14;5.10;;;2.37;;
9761;SDS011;4920;49.594;11.022;2024-03-23T13:06:43;6.77;;;2.47;;
9761;SDS011;4920;49.594;11.022;2024-03-23T13:09:10;4.63;;;2.43;;
9761;SDS011;4920;49.594;11.022;2024-03-23T13:11:38;5.83;;;2.80;;
9761;SDS011;4920;49.594;11.022;2024-03-23T13:14:06;7.30;;;2.70;;
9761;SDS011;4920;49.594;11.022;2024-03-23T13:16:33;5.37;;;2.47;;
9761;SDS011;4920;49.594;11.022;2024-03-23T13:19:01;5.97;;;2.53;;
9761;SDS011;4920;49.594;11.022;2024-03-23T13:21:30;7.10;;;2.70;;
9761;SDS011;4920;49.594;11.022;2024-03-23T13:23:58;3.37;;;2.23;;
9761;SDS011;4920;49.594;11.022;2024-03-23T13:26:25;5.63;;;2.53;;
9761;SDS011;4920;49.594;11.022;2024-03-23T13:28:54;4.75;;;2.38;;
9761;SDS011;4920;49.594;11.022;2024-03-23T13:31:21;4.95;;;2.33;;
9761;SDS011;4920;49.594;11.022;2024-03-23T13:33:49;4.07;;;2.33;;
9761;SDS011;4920;49.594;11.022;2024-03-23T13:36:16;5.22;;;2.38;;
9761;SDS011;4920;49.594;11.022;2024-03-23T13:38:46;5.30;;;2.13;;
9761;SDS011;4920;49.594;11.022;2024-03-23T13:41:13;4.97;;;2.30;;
9761;SDS011;4920;49.594;11.022;2024-03-23T13:43:41;5.50;;;2.40;;
9761;SDS011;4920;49.594;11.022;2024-03-23T13:46:08;7.20;;;2.60;;
9761;SDS011;4920;49.594;11.022;2024-03-23T13:48:36;5.60;;;2.47;;
9761;SDS011;4920;49.594;11.022;2024-03-23T13:51:03;4.87;;;2.30;;
9761;SDS011;4920;49.594;11.022;2024-03-23T13:53:31;6.97;;;2.40;;
9761;SDS011;4920;49.594;11.022;2024-03-23T13:56:00;6.83;;;2.23;;
9761;SDS011;4920;49.594;11.022;2024-03-23T13:58:29;4.37;;;2.27;;
9761;SDS011;4920;49.594;11.022;2024-03-23T14:00:56;5.43;;;2.60;;
9761;SDS011;4920;49.594;11.022;2024-03-23T14:03:24;4.93;;;2.30;;
9761;SDS011;4920;49.594;11.022;2024-03-23T14:05:51;6.23;;;2.53;;
9761;SDS011;4920;49.594;11.022;2024-03-23T14:08:20;7.67;;;3.00;;
9761;SDS011;4920;49.594;11.022;2024-03-23T14:10:47;4.63;;;2.40;;
9761;SDS011;4920;49.594;11.022;2024-03-23T14:13:17;8.40;;;2.57;;
9761;SDS011;4920;49.594;11.022;2024-03-23T14:15:44;4.83;;;2.07;;
9761;SDS011;4920;49.594;11.022;2024-03-23T14:18:12;5.50;;;2.20;;
9761;SDS011;4920;49.594;11.022;2024-03-23T14:20:40;5.63;;;2.40;;
9761;SDS011;4920;49.594;11.022;2024-03-23T14:23:08;6.63;;;2.67;;
9761;SDS011;4920;49.594;11.022;2024-03-23T14:25:35;6.50;;;2.50;;
9761;SDS011;4920;49.594;11.022;2024-03-23T14:28:03;6.63;;;2.70;;
9761;SDS011;4920;49.594;11.022;2024-03-23T14:30:32;8.37;;;2.97;;
9761;SDS011;4920;49.594;11.022;2024-03-23T14:33:00;6.60;;;2.73;;
9761;SDS011;4920;49.594;11.022;2024-03-23T14:35:28;7.00;;;3.23;;
9761;SDS011;4920;49.594;11.022;2024-03-23T14:37:57;6.23;;;2.43;;
9761;SDS011;4920;49.594;11.022;2024-03-23T14:40:24;4.27;;;2.40;;
9761;SDS011;4920;49.594;11.022;2024-03-23T14:42:53;6.20;;;2.60;;
9761;SDS011;4920;49.594;11.022;2024-03-23T14:45:20;7.57;;;2.60;;
9761;SDS011;4920;49.594;11.022;2024-03-23T14:47:51;7.57;;;2.50;;
9761;SDS011;4920;49.594;11.022;2024-03-23T14:50:18;6.33;;;2.57;;
9761;SDS011;4920;49.594;11.022;2024-03-23T14:52:47;5.70;;;2.77;;
9761;SDS011;4920;49.594;11.022;2024-03-23T14:55:14;8.60;;;2.50;;
9761;SDS011;4920;49.594;11.022;2024-03-23T14:57:43;4.83;;;2.60;;
9761;SDS011;4920;49.594;11.022;2024-03-23T15:00:10;5.83;;;2.70;;
9761;SDS011;4920;49.594;11.022;2024-03-23T15:02:39;6.87;;;2.83;;
9761;SDS011;4920;49.594;11.022;2024-03-23T15:05:07;7.87;;;2.90;;
9761;SDS011;4920;49.594;11.022;2024-03-23T15:07:36;6.97;;;2.97;;
9761;SDS011;4920;49.594;11.022;2024-03-23T15:10:04;4.97;;;2.73;;
9761;SDS011;4920;49.594;11.022;2024-03-23T15:12:34;5.53;;;2.70;;
9761;SDS011;4920;49.594;11.022;2024-03-23T15:15:01;6.50;;;2.87;;
9761;SDS011;4920;49.594;11.022;2024-03-23T15:17:29;5.20;;;3.07;;
9761;SDS011;4920;49.594;11.022;2024-03-23T15:20:00;7.17;;;3.10;;
9761;SDS011;4920;49.594;11.022;2024-03-23T15:22:30;6.07;;;3.10;;
9761;SDS011;4920;49.594;11.022;2024-03-23T15:24:57;7.27;;;3.33;;
9761;SDS011;4920;49.594;11.022;2024-03-23T15:27:25;6.50;;;3.93;;
9761;SDS011;4920;49.594;11.022;2024-03-23T15:29:52;5.53;;;2.70;;
9761;SDS011;4920;49.594;11.022;2024-03-23T15:32:20;7.13;;;3.20;;
9761;SDS011;4920;49.594;11.022;2024-03-23T15:34:47;6.80;;;3.23;;
9761;SDS011;4920;49.594;11.022;2024-03-23T15:37:15;6.00;;;2.73;;
9761;SDS011;4920;49.594;11.022;2024-03-23T15:39:44;5.67;;;2.80;;
9761;SDS011;4920;49.594;11.022;2024-03-23T15:42:13;5.83;;;2.87;;
9761;SDS011;4920;49.594;11.022;2024-03-23T15:44:40;10.90;;;2.80;;
9761;SDS011;4920;49.594;11.022;2024-03-23T15:47:08;4.77;;;2.37;;
9761;SDS011;4920;49.594;11.022;2024-03-23T15:49:35;6.13;;;2.37;;
9761;SDS011;4920;49.594;11.022;2024-03-23T15:52:03;4.27;;;2.00;;
9761;SDS011;4920;49.594;11.022;2024-03-23T15:54:30;5.07;;;2.57;;
9761;SDS011;4920;49.594;11.022;2024-03-23T15:57:00;4.47;;;2.13;;
9761;SDS011;4920;49.594;11.022;2024-03-23T15:59:27;4.37;;;2.20;;